KHRL 220312Z 2203/2224 14015KT P6SM BKN020
FM221500 15016G24KT P6SM BKN026
FM221700 16022G29KT P6SM BKN050
From batch tds/tafs/production/2024/5/22/h03_m20_tafs.cache.xml.gz
Issued (24 days ago)
Forecasts
2203/2215 14015KT 6+SM BKN2000

---
fcst_time_to: '2024-05-22T15:00:00Z'
sky_condition:
- sky_cover: BKN
  cloud_base_ft_agl: '2000'
wind_speed_kt: '15'
fcst_time_from: '2024-05-22T03:00:00Z'
wind_dir_degrees: '140'
visibility_statute_mi: 6+

FM221500 15016G24KT 6+SM BKN2600

---
fcst_time_to: '2024-05-22T17:00:00Z'
wind_gust_kt: '24'
sky_condition:
- sky_cover: BKN
  cloud_base_ft_agl: '2600'
wind_speed_kt: '16'
fcst_time_from: '2024-05-22T15:00:00Z'
change_indicator: FM
wind_dir_degrees: '150'
visibility_statute_mi: 6+

FM221700 16022G29KT 6+SM BKN5000

---
fcst_time_to: '2024-05-23T00:00:00Z'
wind_gust_kt: '29'
sky_condition:
- sky_cover: BKN
  cloud_base_ft_agl: '5000'
wind_speed_kt: '22'
fcst_time_from: '2024-05-22T17:00:00Z'
change_indicator: FM
wind_dir_degrees: '160'
visibility_statute_mi: 6+

talk